createdAt,value
2022-11-08T00:01:37.428Z,100.00
2022-11-08T00:26:19.527Z,100.00
2022-11-08T00:33:53.486Z,100.00
2022-11-08T00:41:28.615Z,100.00
2022-11-08T00:49:02.531Z,100.00
2022-11-08T00:56:37.720Z,100.00
2022-11-08T01:04:12.569Z,100.00
2022-11-08T01:11:47.995Z,100.00
2022-11-08T01:19:21.905Z,100.00
2022-11-08T01:26:57.645Z,100.00
2022-11-08T01:34:31.567Z,100.00
2022-11-08T01:42:06.989Z,100.00
2022-11-08T01:49:45.379Z,100.00
2022-11-08T01:57:24.530Z,100.00
2022-11-08T02:04:59.588Z,100.00
2022-11-08T02:12:34.759Z,100.00
2022-11-08T02:20:09.311Z,100.00
2022-11-08T02:27:45.531Z,100.00
2022-11-08T02:35:21.744Z,100.00
2022-11-08T02:42:57.041Z,100.00
2022-11-08T02:50:30.778Z,100.00
2022-11-08T02:58:05.821Z,100.00
2022-11-08T03:05:39.511Z,100.00
2022-11-08T03:13:14.894Z,100.00
2022-11-08T03:20:48.569Z,100.00
2022-11-08T03:28:24.383Z,100.00
2022-11-08T03:35:58.478Z,100.00
2022-11-08T03:43:33.604Z,100.00
2022-11-08T03:51:07.318Z,100.00
2022-11-08T03:58:42.642Z,100.00
2022-11-08T04:06:16.265Z,100.00
2022-11-08T04:14:09.176Z,100.00
2022-11-08T04:21:44.592Z,100.00
2022-11-08T04:29:19.649Z,100.00
2022-11-08T04:36:53.295Z,100.00
2022-11-08T04:44:28.507Z,100.00
2022-11-08T04:52:02.224Z,100.00
2022-11-08T04:59:37.293Z,100.00
2022-11-08T05:07:10.959Z,100.00
2022-11-08T05:14:46.071Z,100.00
2022-11-08T05:22:37.361Z,100.00
2022-11-08T05:30:13.111Z,100.00
2022-11-08T05:37:46.767Z,100.00
2022-11-08T05:45:22.167Z,100.00
2022-11-08T05:52:55.912Z,100.00
2022-11-08T06:00:30.914Z,100.00
2022-11-08T06:08:05.053Z,100.00
2022-11-08T06:15:40.187Z,100.00
2022-11-08T06:23:14.173Z,100.00
2022-11-08T06:30:50.376Z,100.00
2022-11-08T06:38:24.463Z,100.00
2022-11-08T06:46:03.369Z,100.00
2022-11-08T06:53:37.026Z,100.00
2022-11-08T07:01:13.422Z,100.00
2022-11-08T07:08:47.195Z,100.00
2022-11-08T07:16:22.287Z,100.00
2022-11-08T07:23:56.144Z,100.00
2022-11-08T07:31:31.557Z,100.00
2022-11-08T07:39:06.774Z,100.00
2022-11-08T07:46:42.381Z,100.00
2022-11-08T07:54:16.276Z,100.00
2022-11-08T08:01:51.406Z,100.00
2022-11-08T08:09:25.595Z,100.00
2022-11-08T08:17:00.560Z,100.00
2022-11-08T08:24:34.050Z,100.00
2022-11-08T08:32:09.961Z,100.00
2022-11-08T08:39:43.602Z,100.00
2022-11-08T08:47:18.735Z,100.00
2022-11-08T08:54:52.437Z,100.00
2022-11-08T09:02:27.577Z,100.00
2022-11-08T09:10:01.762Z,100.00
2022-11-08T09:17:37.062Z,100.00
2022-11-08T09:25:11.215Z,100.00
2022-11-08T09:33:00.418Z,100.00
2022-11-08T09:40:43.110Z,100.00
2022-11-08T09:48:26.035Z,100.00
2022-11-08T09:56:03.366Z,100.00
2022-11-08T10:03:38.995Z,100.00
2022-11-08T10:11:23.681Z,100.00
2022-11-08T10:19:16.653Z,100.00
2022-11-08T10:26:53.274Z,100.00
2022-11-08T10:34:35.285Z,100.00
2022-11-08T10:42:15.709Z,100.00
2022-11-08T10:49:50.914Z,100.00
2022-11-08T10:57:26.588Z,100.00
2022-11-08T11:05:24.571Z,100.00
2022-11-08T11:13:03.977Z,100.00
2022-11-08T11:20:39.331Z,100.00
2022-11-08T11:28:15.321Z,99.69
2022-11-08T11:35:54.235Z,97.89
2022-11-08T11:43:35.062Z,98.23
2022-11-08T11:51:11.813Z,95.51
2022-11-08T11:59:13.500Z,90.95
2022-11-08T12:07:00.773Z,88.19
2022-11-08T12:14:49.430Z,87.91
2022-11-08T12:22:46.562Z,86.08
2022-11-08T12:30:22.647Z,85.20
2022-11-08T12:38:17.358Z,86.32
2022-11-08T12:46:08.823Z,84.46
2022-11-08T12:54:07.250Z,85.95
2022-11-08T13:01:41.898Z,83.24
2022-11-08T13:09:25.128Z,81.54
2022-11-08T13:17:25.560Z,82.15
2022-11-08T13:25:02.842Z,81.65
2022-11-08T13:32:53.687Z,80.33
2022-11-08T13:40:45.076Z,81.58
2022-11-08T13:48:37.223Z,82.41
2022-11-08T13:56:46.903Z,81.42
2022-11-08T14:04:28.230Z,82.64
2022-11-08T14:12:10.871Z,83.95
2022-11-08T14:19:46.850Z,85.28
2022-11-08T14:27:36.059Z,85.42
2022-11-08T14:35:15.904Z,84.75
2022-11-08T14:42:52.189Z,84.44
2022-11-08T14:50:31.987Z,83.62
2022-11-08T14:58:15.228Z,84.03
2022-11-08T15:05:56.079Z,82.68
2022-11-08T15:13:35.319Z,82.63
2022-11-08T15:21:23.861Z,82.95
2022-11-08T15:29:19.856Z,83.48
2022-11-08T15:36:54.609Z,84.51
2022-11-08T15:44:30.805Z,85.17
2022-11-08T15:52:05.575Z,85.87
2022-11-08T15:59:40.662Z,86.75
2022-11-08T16:07:14.250Z,86.91
2022-11-08T16:14:51.242Z,87.87
2022-11-08T16:22:24.928Z,87.72
2022-11-08T16:30:00.320Z,87.42
2022-11-08T16:37:34.152Z,87.40
2022-11-08T16:45:11.462Z,87.73
2022-11-08T16:52:45.820Z,88.82
2022-11-08T17:00:21.998Z,89.61
2022-11-08T17:07:56.002Z,90.76
2022-11-08T17:15:31.413Z,90.91
2022-11-08T17:23:05.185Z,89.77
2022-11-08T17:30:44.491Z,89.62
2022-11-08T17:38:18.434Z,88.30
2022-11-08T17:45:54.203Z,88.43
2022-11-08T17:53:28.042Z,87.42
2022-11-08T18:01:04.994Z,87.63
2022-11-08T18:08:39.220Z,87.98
2022-11-08T18:16:17.354Z,88.29
2022-11-08T18:23:51.372Z,88.71
2022-11-08T18:31:27.293Z,89.52
2022-11-08T18:39:02.759Z,89.96
2022-11-08T18:46:42.907Z,90.08
2022-11-08T18:54:17.032Z,90.22
2022-11-08T19:01:52.181Z,90.18
2022-11-08T19:09:25.897Z,89.94
2022-11-08T19:17:00.972Z,89.75
2022-11-08T19:24:34.499Z,89.50
2022-11-08T19:32:09.490Z,88.60
2022-11-08T19:39:43.264Z,88.90
2022-11-08T19:47:18.433Z,89.10
2022-11-08T19:54:52.094Z,89.13
2022-11-08T20:02:27.597Z,88.63
2022-11-08T20:10:01.299Z,86.62
2022-11-08T20:17:36.709Z,86.54
2022-11-08T20:25:10.864Z,85.95
2022-11-08T20:32:45.901Z,85.62
2022-11-08T20:40:19.498Z,84.80
2022-11-08T20:47:54.567Z,84.83
2022-11-08T20:55:29.532Z,85.48
2022-11-08T21:03:04.919Z,85.43
2022-11-08T21:10:43.595Z,86.24
2022-11-08T21:18:20.681Z,85.85
2022-11-08T21:25:54.457Z,85.93
2022-11-08T21:33:29.573Z,86.24
2022-11-08T21:41:05.548Z,87.09
2022-11-08T21:48:40.446Z,87.58
2022-11-08T21:56:14.902Z,87.83
2022-11-08T22:03:50.354Z,88.34
2022-11-08T22:11:24.534Z,87.98
2022-11-08T22:19:07.205Z,88.95
2022-11-08T22:26:42.391Z,90.00
2022-11-08T22:34:17.494Z,90.64
2022-11-08T22:41:52.243Z,90.90
2022-11-08T22:49:27.319Z,90.79
2022-11-08T22:57:00.998Z,91.39
2022-11-08T23:04:36.033Z,91.98
2022-11-08T23:12:27.145Z,92.98
2022-11-08T23:20:19.580Z,93.29
2022-11-08T23:28:10.710Z,93.88
2022-11-08T23:35:59.872Z,95.10
2022-11-08T23:43:51.341Z,95.25
2022-11-08T23:51:26.447Z,95.85
2022-11-08T23:59:00.927Z,96.98
